Terminal Aerodrome Forecast
Issued by NWS Twin Cities, MN

Home | Current Version | Previous Version | Text Only | Print | Product List | Glossary On
Versions: 1 2 3 4 5 6 7 8 9 10 11 12 13 14 15 16
000
FTUS43 KMPX 281120
TAFEAU
TAF
KEAU 281120Z 2812/2912 14008KT P6SM VCSH BKN060
     FM281400 11008KT 6SM -SHRA BR SCT015 BKN040
     FM281800 12010KT 6SM -SHRA BKN020
     FM282100 10007KT P6SM BKN025
     FM290200 08006KT P6SM BKN070
      TEMPO 2908/2912 2SM BR=

USA.gov is the U.S. government's official web portal to all federal, state and local government web resources and services.